sensor_id;sensor_type;location;lat;lon;timestamp;P1;durP1;ratioP1;P2;durP2;ratioP2
12059;SDS011;6091;51.432;6.880;2023-12-07T00:00:20;1.80;;;1.70;;
12059;SDS011;6091;51.432;6.880;2023-12-07T00:02:47;1.80;;;1.70;;
12059;SDS011;6091;51.432;6.880;2023-12-07T00:05:14;1.70;;;1.60;;
12059;SDS011;6091;51.432;6.880;2023-12-07T00:07:41;1.60;;;1.50;;
12059;SDS011;6091;51.432;6.880;2023-12-07T00:10:09;1.67;;;1.58;;
12059;SDS011;6091;51.432;6.880;2023-12-07T00:12:36;1.63;;;1.52;;
12059;SDS011;6091;51.432;6.880;2023-12-07T00:15:04;2.10;;;1.90;;
12059;SDS011;6091;51.432;6.880;2023-12-07T00:17:33;2.00;;;1.90;;
12059;SDS011;6091;51.432;6.880;2023-12-07T00:20:00;2.05;;;1.92;;
12059;SDS011;6091;51.432;6.880;2023-12-07T00:22:28;1.70;;;1.60;;
12059;SDS011;6091;51.432;6.880;2023-12-07T00:24:56;2.20;;;2.00;;
12059;SDS011;6091;51.432;6.880;2023-12-07T00:27:24;1.70;;;1.60;;
12059;SDS011;6091;51.432;6.880;2023-12-07T00:29:51;2.25;;;2.05;;
12059;SDS011;6091;51.432;6.880;2023-12-07T00:32:18;1.95;;;1.85;;
12059;SDS011;6091;51.432;6.880;2023-12-07T00:34:45;2.00;;;1.90;;
12059;SDS011;6091;51.432;6.880;2023-12-07T00:37:13;2.10;;;1.98;;
12059;SDS011;6091;51.432;6.880;2023-12-07T00:39:41;1.80;;;1.70;;
12059;SDS011;6091;51.432;6.880;2023-12-07T00:42:08;2.10;;;1.90;;
12059;SDS011;6091;51.432;6.880;2023-12-07T00:44:39;2.22;;;2.03;;
12059;SDS011;6091;51.432;6.880;2023-12-07T00:47:09;1.80;;;1.70;;
12059;SDS011;6091;51.432;6.880;2023-12-07T00:49:39;1.90;;;1.80;;
12059;SDS011;6091;51.432;6.880;2023-12-07T00:52:07;1.77;;;1.67;;
12059;SDS011;6091;51.432;6.880;2023-12-07T00:54:34;2.10;;;1.90;;
12059;SDS011;6091;51.432;6.880;2023-12-07T00:57:02;1.75;;;1.65;;
12059;SDS011;6091;51.432;6.880;2023-12-07T00:59:29;1.90;;;1.80;;
12059;SDS011;6091;51.432;6.880;2023-12-07T01:02:00;1.95;;;1.85;;
12059;SDS011;6091;51.432;6.880;2023-12-07T01:04:28;2.38;;;2.17;;
12059;SDS011;6091;51.432;6.880;2023-12-07T01:06:56;2.08;;;1.88;;
12059;SDS011;6091;51.432;6.880;2023-12-07T01:09:24;2.05;;;1.90;;
12059;SDS011;6091;51.432;6.880;2023-12-07T01:11:52;2.20;;;2.00;;
12059;SDS011;6091;51.432;6.880;2023-12-07T01:14:19;1.95;;;1.75;;
12059;SDS011;6091;51.432;6.880;2023-12-07T01:16:46;2.38;;;2.15;;
12059;SDS011;6091;51.432;6.880;2023-12-07T01:19:13;2.20;;;2.00;;
12059;SDS011;6091;51.432;6.880;2023-12-07T01:21:41;1.90;;;1.80;;
12059;SDS011;6091;51.432;6.880;2023-12-07T01:24:08;2.30;;;2.20;;
12059;SDS011;6091;51.432;6.880;2023-12-07T01:26:41;2.60;;;2.40;;
12059;SDS011;6091;51.432;6.880;2023-12-07T01:29:09;2.40;;;2.20;;
12059;SDS011;6091;51.432;6.880;2023-12-07T01:31:36;2.40;;;2.20;;
12059;SDS011;6091;51.432;6.880;2023-12-07T01:34:03;2.20;;;2.00;;
12059;SDS011;6091;51.432;6.880;2023-12-07T01:36:31;2.67;;;2.47;;
12059;SDS011;6091;51.432;6.880;2023-12-07T01:39:01;2.17;;;2.08;;
12059;SDS011;6091;51.432;6.880;2023-12-07T01:41:29;2.38;;;2.22;;
12059;SDS011;6091;51.432;6.880;2023-12-07T01:43:56;2.38;;;2.17;;
12059;SDS011;6091;51.432;6.880;2023-12-07T01:46:23;2.47;;;2.28;;
12059;SDS011;6091;51.432;6.880;2023-12-07T01:48:51;2.15;;;1.95;;
12059;SDS011;6091;51.432;6.880;2023-12-07T01:51:18;2.08;;;1.98;;
12059;SDS011;6091;51.432;6.880;2023-12-07T01:53:47;2.72;;;2.53;;
12059;SDS011;6091;51.432;6.880;2023-12-07T01:56:17;2.67;;;2.47;;
12059;SDS011;6091;51.432;6.880;2023-12-07T01:58:44;2.55;;;2.35;;
12059;SDS011;6091;51.432;6.880;2023-12-07T02:01:11;2.40;;;2.20;;
12059;SDS011;6091;51.432;6.880;2023-12-07T02:03:39;2.30;;;2.10;;
12059;SDS011;6091;51.432;6.880;2023-12-07T02:06:07;2.70;;;2.50;;
12059;SDS011;6091;51.432;6.880;2023-12-07T02:08:35;2.63;;;2.42;;
12059;SDS011;6091;51.432;6.880;2023-12-07T02:11:08;2.05;;;1.95;;
12059;SDS011;6091;51.432;6.880;2023-12-07T02:13:36;3.17;;;2.88;;
12059;SDS011;6091;51.432;6.880;2023-12-07T02:16:54;2.40;;;2.20;;
12059;SDS011;6091;51.432;6.880;2023-12-07T02:21:50;2.53;;;2.33;;
12059;SDS011;6091;51.432;6.880;2023-12-07T02:24:38;2.20;;;2.00;;
12059;SDS011;6091;51.432;6.880;2023-12-07T02:27:39;2.75;;;2.55;;
12059;SDS011;6091;51.432;6.880;2023-12-07T02:30:13;2.50;;;2.30;;
12059;SDS011;6091;51.432;6.880;2023-12-07T02:32:42;2.60;;;2.40;;
12059;SDS011;6091;51.432;6.880;2023-12-07T02:35:11;2.45;;;2.25;;
12059;SDS011;6091;51.432;6.880;2023-12-07T02:37:48;2.40;;;2.20;;
12059;SDS011;6091;51.432;6.880;2023-12-07T02:40:17;2.80;;;2.60;;
12059;SDS011;6091;51.432;6.880;2023-12-07T02:42:52;2.78;;;2.58;;
12059;SDS011;6091;51.432;6.880;2023-12-07T02:45:20;2.50;;;2.30;;
12059;SDS011;6091;51.432;6.880;2023-12-07T02:47:48;2.60;;;2.40;;
12059;SDS011;6091;51.432;6.880;2023-12-07T02:50:15;3.00;;;2.80;;
12059;SDS011;6091;51.432;6.880;2023-12-07T02:52:42;2.90;;;2.60;;
12059;SDS011;6091;51.432;6.880;2023-12-07T02:55:09;3.13;;;2.80;;
12059;SDS011;6091;51.432;6.880;2023-12-07T02:57:37;2.53;;;2.33;;
12059;SDS011;6091;51.432;6.880;2023-12-07T03:00:05;2.85;;;2.55;;
12059;SDS011;6091;51.432;6.880;2023-12-07T03:02:34;2.63;;;2.42;;
12059;SDS011;6091;51.432;6.880;2023-12-07T03:05:03;2.65;;;2.45;;
12059;SDS011;6091;51.432;6.880;2023-12-07T03:07:32;2.70;;;2.50;;
12059;SDS011;6091;51.432;6.880;2023-12-07T03:10:00;2.83;;;2.63;;
12059;SDS011;6091;51.432;6.880;2023-12-07T03:12:29;3.03;;;2.63;;
12059;SDS011;6091;51.432;6.880;2023-12-07T03:14:57;2.55;;;2.35;;
12059;SDS011;6091;51.432;6.880;2023-12-07T03:17:24;3.08;;;2.67;;
12059;SDS011;6091;51.432;6.880;2023-12-07T03:19:51;2.45;;;2.25;;
12059;SDS011;6091;51.432;6.880;2023-12-07T03:22:18;2.38;;;2.17;;
12059;SDS011;6091;51.432;6.880;2023-12-07T03:24:46;2.80;;;2.60;;
12059;SDS011;6091;51.432;6.880;2023-12-07T03:27:18;2.90;;;2.63;;
12059;SDS011;6091;51.432;6.880;2023-12-07T03:29:46;2.67;;;2.47;;
12059;SDS011;6091;51.432;6.880;2023-12-07T03:32:13;2.30;;;2.10;;
12059;SDS011;6091;51.432;6.880;2023-12-07T03:34:40;2.70;;;2.50;;
12059;SDS011;6091;51.432;6.880;2023-12-07T03:37:07;2.40;;;2.20;;
12059;SDS011;6091;51.432;6.880;2023-12-07T03:39:34;2.65;;;2.45;;
12059;SDS011;6091;51.432;6.880;2023-12-07T03:42:01;2.75;;;2.55;;
12059;SDS011;6091;51.432;6.880;2023-12-07T03:44:28;2.47;;;2.28;;
12059;SDS011;6091;51.432;6.880;2023-12-07T03:46:57;2.60;;;2.40;;
12059;SDS011;6091;51.432;6.880;2023-12-07T03:49:24;2.78;;;2.58;;
12059;SDS011;6091;51.432;6.880;2023-12-07T03:51:54;2.92;;;2.63;;
12059;SDS011;6091;51.432;6.880;2023-12-07T03:54:21;2.58;;;2.38;;
12059;SDS011;6091;51.432;6.880;2023-12-07T03:56:48;2.47;;;2.22;;
12059;SDS011;6091;51.432;6.880;2023-12-07T03:59:15;2.47;;;2.28;;
12059;SDS011;6091;51.432;6.880;2023-12-07T04:01:42;2.58;;;2.38;;
12059;SDS011;6091;51.432;6.880;2023-12-07T04:04:10;2.53;;;2.33;;
12059;SDS011;6091;51.432;6.880;2023-12-07T04:06:37;2.58;;;2.38;;
12059;SDS011;6091;51.432;6.880;2023-12-07T04:09:04;2.53;;;2.33;;
12059;SDS011;6091;51.432;6.880;2023-12-07T04:11:31;2.67;;;2.47;;
12059;SDS011;6091;51.432;6.880;2023-12-07T04:13:58;2.78;;;2.58;;
12059;SDS011;6091;51.432;6.880;2023-12-07T04:16:25;2.80;;;2.60;;
12059;SDS011;6091;51.432;6.880;2023-12-07T04:18:52;2.30;;;2.08;;
12059;SDS011;6091;51.432;6.880;2023-12-07T04:21:20;2.40;;;2.20;;
12059;SDS011;6091;51.432;6.880;2023-12-07T04:23:47;2.83;;;2.63;;
12059;SDS011;6091;51.432;6.880;2023-12-07T04:26:14;2.72;;;2.53;;
12059;SDS011;6091;51.432;6.880;2023-12-07T04:28:42;2.45;;;2.25;;
12059;SDS011;6091;51.432;6.880;2023-12-07T04:31:10;2.53;;;2.33;;
12059;SDS011;6091;51.432;6.880;2023-12-07T04:33:37;2.00;;;1.90;;
12059;SDS011;6091;51.432;6.880;2023-12-07T04:36:04;2.60;;;2.40;;
12059;SDS011;6091;51.432;6.880;2023-12-07T04:38:32;2.33;;;2.20;;
12059;SDS011;6091;51.432;6.880;2023-12-07T04:40:59;2.33;;;2.13;;
12059;SDS011;6091;51.432;6.880;2023-12-07T04:43:27;2.55;;;2.35;;
12059;SDS011;6091;51.432;6.880;2023-12-07T04:45:53;2.25;;;2.08;;
12059;SDS011;6091;51.432;6.880;2023-12-07T04:48:21;2.50;;;2.17;;
12059;SDS011;6091;51.432;6.880;2023-12-07T04:50:48;2.80;;;2.60;;
12059;SDS011;6091;51.432;6.880;2023-12-07T04:53:15;2.42;;;2.22;;
12059;SDS011;6091;51.432;6.880;2023-12-07T04:55:42;2.20;;;2.00;;
12059;SDS011;6091;51.432;6.880;2023-12-07T04:58:13;2.60;;;2.40;;
12059;SDS011;6091;51.432;6.880;2023-12-07T05:00:40;2.42;;;2.22;;
12059;SDS011;6091;51.432;6.880;2023-12-07T05:03:08;2.45;;;2.25;;
12059;SDS011;6091;51.432;6.880;2023-12-07T05:05:35;2.30;;;2.20;;
12059;SDS011;6091;51.432;6.880;2023-12-07T05:08:03;2.20;;;2.08;;
12059;SDS011;6091;51.432;6.880;2023-12-07T05:10:30;2.35;;;2.15;;
12059;SDS011;6091;51.432;6.880;2023-12-07T05:12:57;2.75;;;2.55;;
12059;SDS011;6091;51.432;6.880;2023-12-07T05:15:25;2.40;;;2.20;;
12059;SDS011;6091;51.432;6.880;2023-12-07T05:17:52;2.55;;;2.38;;
12059;SDS011;6091;51.432;6.880;2023-12-07T05:20:20;2.50;;;2.30;;
12059;SDS011;6091;51.432;6.880;2023-12-07T05:22:49;2.53;;;2.33;;
12059;SDS011;6091;51.432;6.880;2023-12-07T05:25:16;2.40;;;2.20;;
12059;SDS011;6091;51.432;6.880;2023-12-07T05:27:44;3.13;;;2.78;;
12059;SDS011;6091;51.432;6.880;2023-12-07T05:30:11;2.65;;;2.45;;
12059;SDS011;6091;51.432;6.880;2023-12-07T05:32:39;2.20;;;2.00;;
12059;SDS011;6091;51.432;6.880;2023-12-07T05:35:06;2.50;;;2.30;;
12059;SDS011;6091;51.432;6.880;2023-12-07T05:37:34;2.47;;;2.28;;
12059;SDS011;6091;51.432;6.880;2023-12-07T05:40:01;2.20;;;2.05;;
12059;SDS011;6091;51.432;6.880;2023-12-07T05:42:29;2.85;;;2.63;;
12059;SDS011;6091;51.432;6.880;2023-12-07T05:44:56;2.15;;;2.05;;
12059;SDS011;6091;51.432;6.880;2023-12-07T05:47:24;2.47;;;2.28;;
12059;SDS011;6091;51.432;6.880;2023-12-07T05:49:53;2.40;;;2.20;;
12059;SDS011;6091;51.432;6.880;2023-12-07T05:52:20;2.47;;;2.28;;
12059;SDS011;6091;51.432;6.880;2023-12-07T05:54:49;2.35;;;2.22;;
12059;SDS011;6091;51.432;6.880;2023-12-07T05:57:16;2.30;;;2.10;;
12059;SDS011;6091;51.432;6.880;2023-12-07T05:59:43;2.45;;;2.25;;
12059;SDS011;6091;51.432;6.880;2023-12-07T06:02:10;2.35;;;2.20;;
12059;SDS011;6091;51.432;6.880;2023-12-07T06:04:37;2.22;;;2.03;;
12059;SDS011;6091;51.432;6.880;2023-12-07T06:07:05;2.70;;;2.50;;
12059;SDS011;6091;51.432;6.880;2023-12-07T06:09:32;2.55;;;2.35;;
12059;SDS011;6091;51.432;6.880;2023-12-07T06:11:59;2.08;;;1.98;;
12059;SDS011;6091;51.432;6.880;2023-12-07T06:14:28;2.15;;;2.05;;
12059;SDS011;6091;51.432;6.880;2023-12-07T06:16:55;2.38;;;2.22;;
12059;SDS011;6091;51.432;6.880;2023-12-07T06:19:25;2.55;;;2.35;;
12059;SDS011;6091;51.432;6.880;2023-12-07T06:21:52;2.17;;;2.05;;
12059;SDS011;6091;51.432;6.880;2023-12-07T06:24:20;2.28;;;2.08;;
12059;SDS011;6091;51.432;6.880;2023-12-07T06:26:51;2.03;;;1.83;;
12059;SDS011;6091;51.432;6.880;2023-12-07T06:29:18;2.40;;;2.22;;
12059;SDS011;6091;51.432;6.880;2023-12-07T06:31:45;2.17;;;2.08;;
12059;SDS011;6091;51.432;6.880;2023-12-07T06:34:12;2.20;;;2.10;;
12059;SDS011;6091;51.432;6.880;2023-12-07T06:36:40;2.10;;;2.00;;
12059;SDS011;6091;51.432;6.880;2023-12-07T06:39:07;2.50;;;2.30;;
12059;SDS011;6091;51.432;6.880;2023-12-07T06:41:34;2.22;;;2.13;;
12059;SDS011;6091;51.432;6.880;2023-12-07T06:44:01;2.53;;;2.33;;
12059;SDS011;6091;51.432;6.880;2023-12-07T06:46:28;2.25;;;2.05;;
12059;SDS011;6091;51.432;6.880;2023-12-07T06:48:55;2.33;;;2.00;;
12059;SDS011;6091;51.432;6.880;2023-12-07T06:51:22;2.35;;;2.15;;
12059;SDS011;6091;51.432;6.880;2023-12-07T06:53:50;2.35;;;2.13;;
12059;SDS011;6091;51.432;6.880;2023-12-07T06:56:17;2.00;;;1.90;;
12059;SDS011;6091;51.432;6.880;2023-12-07T06:58:44;2.33;;;2.13;;
12059;SDS011;6091;51.432;6.880;2023-12-07T07:01:13;2.22;;;2.03;;
12059;SDS011;6091;51.432;6.880;2023-12-07T07:03:40;2.40;;;2.17;;
12059;SDS011;6091;51.432;6.880;2023-12-07T07:06:07;2.38;;;2.17;;
12059;SDS011;6091;51.432;6.880;2023-12-07T07:08:34;2.45;;;2.25;;
12059;SDS011;6091;51.432;6.880;2023-12-07T07:11:08;2.78;;;2.03;;
12059;SDS011;6091;51.432;6.880;2023-12-07T07:13:40;2.30;;;2.17;;
12059;SDS011;6091;51.432;6.880;2023-12-07T07:16:08;2.65;;;2.45;;
12059;SDS011;6091;51.432;6.880;2023-12-07T07:18:37;2.28;;;2.08;;
12059;SDS011;6091;51.432;6.880;2023-12-07T07:21:06;3.10;;;2.40;;
12059;SDS011;6091;51.432;6.880;2023-12-07T07:23:34;2.55;;;2.35;;
12059;SDS011;6091;51.432;6.880;2023-12-07T07:26:02;2.38;;;2.15;;
12059;SDS011;6091;51.432;6.880;2023-12-07T07:28:29;4.63;;;2.20;;
12059;SDS011;6091;51.432;6.880;2023-12-07T07:30:56;3.00;;;2.33;;
12059;SDS011;6091;51.432;6.880;2023-12-07T07:33:23;2.85;;;2.30;;
12059;SDS011;6091;51.432;6.880;2023-12-07T07:35:53;4.88;;;2.65;;
12059;SDS011;6091;51.432;6.880;2023-12-07T07:38:23;5.22;;;2.70;;
12059;SDS011;6091;51.432;6.880;2023-12-07T07:40:51;3.80;;;2.72;;
12059;SDS011;6091;51.432;6.880;2023-12-07T07:43:18;3.30;;;2.70;;
12059;SDS011;6091;51.432;6.880;2023-12-07T07:45:45;3.05;;;2.20;;
12059;SDS011;6091;51.432;6.880;2023-12-07T07:48:12;2.38;;;2.17;;
12059;SDS011;6091;51.432;6.880;2023-12-07T07:50:40;2.20;;;2.00;;
12059;SDS011;6091;51.432;6.880;2023-12-07T07:53:07;2.40;;;2.20;;
12059;SDS011;6091;51.432;6.880;2023-12-07T07:55:34;3.15;;;2.70;;
12059;SDS011;6091;51.432;6.880;2023-12-07T07:58:01;2.50;;;2.28;;
12059;SDS011;6091;51.432;6.880;2023-12-07T08:00:29;3.13;;;2.35;;
12059;SDS011;6091;51.432;6.880;2023-12-07T08:02:57;3.38;;;2.30;;
12059;SDS011;6091;51.432;6.880;2023-12-07T08:05:24;3.90;;;2.25;;
12059;SDS011;6091;51.432;6.880;2023-12-07T08:07:51;2.40;;;2.20;;
12059;SDS011;6091;51.432;6.880;2023-12-07T08:10:18;2.92;;;2.40;;
12059;SDS011;6091;51.432;6.880;2023-12-07T08:12:47;3.83;;;2.63;;
12059;SDS011;6091;51.432;6.880;2023-12-07T08:15:14;3.05;;;2.20;;
12059;SDS011;6091;51.432;6.880;2023-12-07T08:17:41;5.75;;;5.15;;
12059;SDS011;6091;51.432;6.880;2023-12-07T08:20:09;5.18;;;4.70;;
12059;SDS011;6091;51.432;6.880;2023-12-07T08:22:39;4.97;;;4.45;;
12059;SDS011;6091;51.432;6.880;2023-12-07T08:25:10;4.05;;;3.13;;
12059;SDS011;6091;51.432;6.880;2023-12-07T08:27:38;3.70;;;2.65;;
12059;SDS011;6091;51.432;6.880;2023-12-07T08:30:06;3.80;;;2.97;;
12059;SDS011;6091;51.432;6.880;2023-12-07T08:32:36;5.07;;;2.70;;
12059;SDS011;6091;51.432;6.880;2023-12-07T08:35:04;3.55;;;2.50;;
12059;SDS011;6091;51.432;6.880;2023-12-07T08:37:32;2.55;;;2.35;;
12059;SDS011;6091;51.432;6.880;2023-12-07T08:40:00;8.20;;;2.60;;
12059;SDS011;6091;51.432;6.880;2023-12-07T08:42:27;2.40;;;2.20;;
12059;SDS011;6091;51.432;6.880;2023-12-07T08:44:54;2.47;;;2.28;;
12059;SDS011;6091;51.432;6.880;2023-12-07T08:47:21;5.00;;;2.50;;
12059;SDS011;6091;51.432;6.880;2023-12-07T08:49:49;3.38;;;2.00;;
12059;SDS011;6091;51.432;6.880;2023-12-07T08:52:17;7.30;;;2.60;;
12059;SDS011;6091;51.432;6.880;2023-12-07T08:55:01;2.10;;;1.90;;
12059;SDS011;6091;51.432;6.880;2023-12-07T08:57:28;2.38;;;2.15;;
12059;SDS011;6091;51.432;6.880;2023-12-07T08:59:55;2.03;;;1.80;;
12059;SDS011;6091;51.432;6.880;2023-12-07T09:02:23;2.83;;;1.85;;
12059;SDS011;6091;51.432;6.880;2023-12-07T09:05:07;4.15;;;2.47;;
12059;SDS011;6091;51.432;6.880;2023-12-07T09:07:35;6.80;;;2.40;;
12059;SDS011;6091;51.432;6.880;2023-12-07T09:10:03;2.60;;;2.40;;
12059;SDS011;6091;51.432;6.880;2023-12-07T09:12:31;11.50;;;2.47;;
12059;SDS011;6091;51.432;6.880;2023-12-07T09:15:04;3.42;;;2.22;;
12059;SDS011;6091;51.432;6.880;2023-12-07T09:17:38;2.17;;;1.85;;
12059;SDS011;6091;51.432;6.880;2023-12-07T09:20:07;3.55;;;1.90;;
12059;SDS011;6091;51.432;6.880;2023-12-07T09:22:44;3.95;;;2.63;;
12059;SDS011;6091;51.432;6.880;2023-12-07T09:25:13;3.15;;;2.03;;
12059;SDS011;6091;51.432;6.880;2023-12-07T09:27:42;2.47;;;2.05;;
12059;SDS011;6091;51.432;6.880;2023-12-07T09:30:10;2.33;;;1.70;;
12059;SDS011;6091;51.432;6.880;2023-12-07T09:32:41;3.92;;;1.88;;
12059;SDS011;6091;51.432;6.880;2023-12-07T09:35:11;2.33;;;1.80;;
12059;SDS011;6091;51.432;6.880;2023-12-07T09:37:42;2.63;;;1.48;;
12059;SDS011;6091;51.432;6.880;2023-12-07T09:40:14;1.90;;;1.75;;
12059;SDS011;6091;51.432;6.880;2023-12-07T09:42:47;1.88;;;1.70;;
12059;SDS011;6091;51.432;6.880;2023-12-07T09:45:16;1.90;;;1.63;;
12059;SDS011;6091;51.432;6.880;2023-12-07T09:47:47;2.30;;;1.70;;
12059;SDS011;6091;51.432;6.880;2023-12-07T09:50:20;2.95;;;1.52;;
12059;SDS011;6091;51.432;6.880;2023-12-07T09:52:49;4.15;;;2.40;;
12059;SDS011;6091;51.432;6.880;2023-12-07T09:55:32;2.33;;;1.88;;
12059;SDS011;6091;51.432;6.880;2023-12-07T09:58:01;2.10;;;1.60;;
12059;SDS011;6091;51.432;6.880;2023-12-07T10:00:33;2.30;;;2.00;;
12059;SDS011;6091;51.432;6.880;2023-12-07T10:03:05;3.90;;;2.00;;
12059;SDS011;6091;51.432;6.880;2023-12-07T10:05:52;3.20;;;1.85;;
12059;SDS011;6091;51.432;6.880;2023-12-07T10:08:30;4.55;;;1.83;;
12059;SDS011;6091;51.432;6.880;2023-12-07T10:11:02;4.00;;;1.98;;
12059;SDS011;6091;51.432;6.880;2023-12-07T10:13:38;4.88;;;2.00;;
12059;SDS011;6091;51.432;6.880;2023-12-07T10:16:09;2.13;;;1.92;;
12059;SDS011;6091;51.432;6.880;2023-12-07T10:18:39;3.95;;;1.95;;
12059;SDS011;6091;51.432;6.880;2023-12-07T10:21:10;4.93;;;2.03;;
12059;SDS011;6091;51.432;6.880;2023-12-07T10:23:40;5.03;;;2.17;;
12059;SDS011;6091;51.432;6.880;2023-12-07T10:26:15;6.15;;;1.77;;
12059;SDS011;6091;51.432;6.880;2023-12-07T10:28:48;5.75;;;1.90;;
12059;SDS011;6091;51.432;6.880;2023-12-07T10:31:21;6.47;;;2.00;;
12059;SDS011;6091;51.432;6.880;2023-12-07T10:33:50;4.22;;;2.22;;
12059;SDS011;6091;51.432;6.880;2023-12-07T10:36:19;3.70;;;2.25;;
12059;SDS011;6091;51.432;6.880;2023-12-07T10:38:46;3.17;;;2.17;;
12059;SDS011;6091;51.432;6.880;2023-12-07T10:41:18;3.70;;;1.58;;
12059;SDS011;6091;51.432;6.880;2023-12-07T10:43:54;2.35;;;1.83;;
12059;SDS011;6091;51.432;6.880;2023-12-07T10:46:30;2.20;;;1.73;;
12059;SDS011;6091;51.432;6.880;2023-12-07T10:49:05;3.30;;;1.90;;
12059;SDS011;6091;51.432;6.880;2023-12-07T10:52:00;6.97;;;2.00;;
12059;SDS011;6091;51.432;6.880;2023-12-07T10:54:39;1.83;;;1.50;;
12059;SDS011;6091;51.432;6.880;2023-12-07T10:57:20;2.28;;;1.85;;
12059;SDS011;6091;51.432;6.880;2023-12-07T10:59:49;2.33;;;1.38;;
12059;SDS011;6091;51.432;6.880;2023-12-07T11:02:20;2.05;;;1.70;;
12059;SDS011;6091;51.432;6.880;2023-12-07T11:04:49;2.08;;;1.40;;
12059;SDS011;6091;51.432;6.880;2023-12-07T11:07:18;2.88;;;1.70;;
12059;SDS011;6091;51.432;6.880;2023-12-07T11:10:00;2.92;;;1.75;;
12059;SDS011;6091;51.432;6.880;2023-12-07T11:13:08;1.95;;;1.60;;
12059;SDS011;6091;51.432;6.880;2023-12-07T11:15:43;2.10;;;1.42;;
12059;SDS011;6091;51.432;6.880;2023-12-07T11:18:11;2.13;;;1.90;;
12059;SDS011;6091;51.432;6.880;2023-12-07T11:23:10;4.03;;;1.60;;
12059;SDS011;6091;51.432;6.880;2023-12-07T11:25:38;2.08;;;1.55;;
12059;SDS011;6091;51.432;6.880;2023-12-07T11:28:06;3.13;;;1.70;;
12059;SDS011;6091;51.432;6.880;2023-12-07T11:30:35;2.40;;;1.60;;
12059;SDS011;6091;51.432;6.880;2023-12-07T11:33:04;2.78;;;1.45;;
12059;SDS011;6091;51.432;6.880;2023-12-07T11:35:32;2.40;;;1.52;;
12059;SDS011;6091;51.432;6.880;2023-12-07T11:40:51;4.40;;;1.35;;
12059;SDS011;6091;51.432;6.880;2023-12-07T11:46:00;2.35;;;1.60;;
12059;SDS011;6091;51.432;6.880;2023-12-07T11:48:28;4.20;;;1.73;;
12059;SDS011;6091;51.432;6.880;2023-12-07T11:50:56;3.15;;;1.88;;
12059;SDS011;6091;51.432;6.880;2023-12-07T11:53:28;3.03;;;1.90;;
12059;SDS011;6091;51.432;6.880;2023-12-07T11:55:58;2.97;;;1.65;;
12059;SDS011;6091;51.432;6.880;2023-12-07T11:58:30;3.15;;;1.77;;
12059;SDS011;6091;51.432;6.880;2023-12-07T12:01:04;1.42;;;1.30;;
12059;SDS011;6091;51.432;6.880;2023-12-07T12:03:32;2.00;;;1.50;;
12059;SDS011;6091;51.432;6.880;2023-12-07T12:06:01;6.35;;;1.58;;
12059;SDS011;6091;51.432;6.880;2023-12-07T12:08:31;2.25;;;1.63;;
12059;SDS011;6091;51.432;6.880;2023-12-07T12:10:58;2.45;;;1.50;;
12059;SDS011;6091;51.432;6.880;2023-12-07T12:13:30;2.53;;;1.55;;
12059;SDS011;6091;51.432;6.880;2023-12-07T12:16:01;3.03;;;1.33;;
12059;SDS011;6091;51.432;6.880;2023-12-07T12:18:32;1.80;;;1.40;;
12059;SDS011;6091;51.432;6.880;2023-12-07T12:21:03;2.28;;;1.42;;
12059;SDS011;6091;51.432;6.880;2023-12-07T12:23:35;2.38;;;1.50;;
12059;SDS011;6091;51.432;6.880;2023-12-07T12:26:06;2.13;;;1.40;;
12059;SDS011;6091;51.432;6.880;2023-12-07T12:28:36;1.80;;;1.10;;
12059;SDS011;6091;51.432;6.880;2023-12-07T12:31:09;2.55;;;1.42;;
12059;SDS011;6091;51.432;6.880;2023-12-07T12:33:38;2.65;;;1.42;;
12059;SDS011;6091;51.432;6.880;2023-12-07T12:36:06;2.40;;;1.38;;
12059;SDS011;6091;51.432;6.880;2023-12-07T12:38:37;2.30;;;1.33;;
12059;SDS011;6091;51.432;6.880;2023-12-07T12:41:09;1.30;;;1.20;;
12059;SDS011;6091;51.432;6.880;2023-12-07T12:43:38;2.10;;;1.10;;
12059;SDS011;6091;51.432;6.880;2023-12-07T12:46:06;2.17;;;1.25;;
12059;SDS011;6091;51.432;6.880;2023-12-07T12:48:34;1.92;;;1.38;;
12059;SDS011;6091;51.432;6.880;2023-12-07T12:51:08;1.92;;;1.30;;
12059;SDS011;6091;51.432;6.880;2023-12-07T12:53:46;1.83;;;1.27;;
12059;SDS011;6091;51.432;6.880;2023-12-07T12:56:17;1.60;;;1.50;;
12059;SDS011;6091;51.432;6.880;2023-12-07T12:58:51;1.38;;;1.23;;
12059;SDS011;6091;51.432;6.880;2023-12-07T13:01:30;1.73;;;1.13;;
12059;SDS011;6091;51.432;6.880;2023-12-07T13:03:58;1.75;;;1.52;;
12059;SDS011;6091;51.432;6.880;2023-12-07T13:06:25;2.00;;;1.40;;
12059;SDS011;6091;51.432;6.880;2023-12-07T13:08:55;1.60;;;1.50;;
12059;SDS011;6091;51.432;6.880;2023-12-07T13:11:24;1.67;;;1.30;;
12059;SDS011;6091;51.432;6.880;2023-12-07T13:13:51;1.70;;;1.48;;
12059;SDS011;6091;51.432;6.880;2023-12-07T13:16:19;2.17;;;1.33;;
12059;SDS011;6091;51.432;6.880;2023-12-07T13:18:48;1.35;;;1.20;;
12059;SDS011;6091;51.432;6.880;2023-12-07T13:21:15;1.70;;;1.27;;
12059;SDS011;6091;51.432;6.880;2023-12-07T13:23:43;1.60;;;1.40;;
12059;SDS011;6091;51.432;6.880;2023-12-07T13:26:13;1.27;;;1.17;;
12059;SDS011;6091;51.432;6.880;2023-12-07T13:28:40;1.13;;;1.02;;
12059;SDS011;6091;51.432;6.880;2023-12-07T13:31:08;1.42;;;1.23;;
12059;SDS011;6091;51.432;6.880;2023-12-07T13:33:36;1.40;;;1.30;;
12059;SDS011;6091;51.432;6.880;2023-12-07T13:36:18;1.25;;;1.15;;
12059;SDS011;6091;51.432;6.880;2023-12-07T13:38:47;1.48;;;1.38;;
12059;SDS011;6091;51.432;6.880;2023-12-07T13:41:14;2.08;;;1.15;;
12059;SDS011;6091;51.432;6.880;2023-12-07T13:43:43;1.52;;;1.20;;
12059;SDS011;6091;51.432;6.880;2023-12-07T13:46:10;1.58;;;1.10;;
12059;SDS011;6091;51.432;6.880;2023-12-07T13:48:38;0.98;;;0.90;;
12059;SDS011;6091;51.432;6.880;2023-12-07T13:51:06;1.77;;;1.48;;
12059;SDS011;6091;51.432;6.880;2023-12-07T13:53:34;1.50;;;1.38;;
12059;SDS011;6091;51.432;6.880;2023-12-07T13:56:02;1.35;;;1.05;;
12059;SDS011;6091;51.432;6.880;2023-12-07T13:58:31;1.30;;;1.20;;
12059;SDS011;6091;51.432;6.880;2023-12-07T14:00:58;1.85;;;1.20;;
12059;SDS011;6091;51.432;6.880;2023-12-07T14:03:25;2.17;;;1.25;;
12059;SDS011;6091;51.432;6.880;2023-12-07T14:05:54;1.20;;;1.10;;
12059;SDS011;6091;51.432;6.880;2023-12-07T14:08:22;1.23;;;1.10;;
12059;SDS011;6091;51.432;6.880;2023-12-07T14:10:49;1.90;;;1.20;;
12059;SDS011;6091;51.432;6.880;2023-12-07T14:13:16;1.00;;;1.00;;
12059;SDS011;6091;51.432;6.880;2023-12-07T14:15:44;1.30;;;1.20;;
12059;SDS011;6091;51.432;6.880;2023-12-07T14:18:11;1.35;;;1.25;;
12059;SDS011;6091;51.432;6.880;2023-12-07T14:20:41;1.30;;;1.20;;
12059;SDS011;6091;51.432;6.880;2023-12-07T14:23:29;0.95;;;0.95;;
12059;SDS011;6091;51.432;6.880;2023-12-07T14:25:57;1.65;;;0.98;;
12059;SDS011;6091;51.432;6.880;2023-12-07T14:28:29;1.20;;;1.10;;
12059;SDS011;6091;51.432;6.880;2023-12-07T14:30:57;1.50;;;1.40;;
12059;SDS011;6091;51.432;6.880;2023-12-07T14:33:26;1.35;;;1.13;;
12059;SDS011;6091;51.432;6.880;2023-12-07T14:35:54;1.58;;;1.40;;
12059;SDS011;6091;51.432;6.880;2023-12-07T14:38:22;1.00;;;0.93;;
12059;SDS011;6091;51.432;6.880;2023-12-07T14:40:50;1.02;;;1.00;;
12059;SDS011;6091;51.432;6.880;2023-12-07T14:43:17;1.30;;;1.20;;
12059;SDS011;6091;51.432;6.880;2023-12-07T14:45:48;1.60;;;1.35;;
12059;SDS011;6091;51.432;6.880;2023-12-07T14:48:16;1.10;;;1.00;;
12059;SDS011;6091;51.432;6.880;2023-12-07T14:50:43;1.00;;;0.93;;
12059;SDS011;6091;51.432;6.880;2023-12-07T14:53:13;1.23;;;1.13;;
12059;SDS011;6091;51.432;6.880;2023-12-07T14:55:41;1.73;;;1.10;;
12059;SDS011;6091;51.432;6.880;2023-12-07T14:58:12;1.30;;;1.20;;
12059;SDS011;6091;51.432;6.880;2023-12-07T15:00:41;1.05;;;0.98;;
12059;SDS011;6091;51.432;6.880;2023-12-07T15:03:10;1.13;;;1.00;;
12059;SDS011;6091;51.432;6.880;2023-12-07T15:05:38;1.10;;;1.00;;
12059;SDS011;6091;51.432;6.880;2023-12-07T15:08:07;1.15;;;1.10;;
12059;SDS011;6091;51.432;6.880;2023-12-07T15:10:35;1.10;;;1.05;;
12059;SDS011;6091;51.432;6.880;2023-12-07T15:13:02;1.00;;;1.00;;
12059;SDS011;6091;51.432;6.880;2023-12-07T15:15:33;1.30;;;1.20;;
12059;SDS011;6091;51.432;6.880;2023-12-07T15:18:02;1.13;;;1.10;;
12059;SDS011;6091;51.432;6.880;2023-12-07T15:20:30;1.08;;;1.02;;
12059;SDS011;6091;51.432;6.880;2023-12-07T15:22:57;1.25;;;1.15;;